KBDE Airport (Baudette Intl) Information

FAA: BDE - ICAO: KBDE

KBDE Airport Location

State Minnesota
County Lake Of The Woods
City Baudette
KBDE Airport is 1 miles north of Baudette, MN.
Latitude 48-43-48.9000N
Longitude 094-36-39.8000W
Elevation 1,085ft

KBDE Airport METARs

METAR KBDE 251653Z AUTO 13009KT 10SM FEW019 06/01 A3024 RMK AO2 SLP252 T00560006
Altimeter 30.24"
Temperature 5.6°C (42.1°F)
Wind 130° at 9KT
Clouds few at 1,900ft
Visibility 10.0mi
Time observed: 2021-10-25T16:53:00Z

KBDE Airport Details

Status Operational
Activation November 1946
Ownership Public
Usage Public
Chart TWIN CITIES
ATC on-site No
Beacon schedule sunset-sunrise
Beacon color clear green

KBDE Airport Contacts

Owner LAKE OF THE WOODS COUNTY
Owner address 206 SE 8 AVE, BAUDETTE, MN 56623
Owner phone 218-634-1767
Manager JOHN ZASKE
Manager address 601 WEST CHANDLER ST, ARLINGTON, MN 55307
Manager phone 507-964-8406

KBDE Airport (Baudette Intl) Radio Frequencies

KBDE (Airport) Radio Frequencies

UNICOM 122.8
Common traffic advisory frequency (CTAF) 122.8